Tiempo atmosférico en la estación meteorológica de Alhama de Murcia, Murcia (157 m.)

Fecha
DESCASC
Temp. máxima en grados centígrados (hora)
DESCASC
Temp. mínima en grados centígrados (hora)
DESCASC
Temp. media en grados centígrados
DESCASC
Racha de viento máxima en m/sg (hora)
DESCASC
Velocidad máxima media en intervalos de 10 minutos(hora)
DESCASC
Precipitaciones diarias en mm
DESCASC
Precipitaciones de 00:00 a 06:00 en mm
DESCASC
Precipitaciones de 06:00 a 12:00 en mm
DESCASC
Precipitaciones de 12:00 a 18:00 en mm
DESCASC
Precipitaciones de 18:00 a 24:00 en mm
DESCASC
17-08-2017 36.4 (17:50) 22.1 (07:30) 29.3 9.72 (16:40) 5 (15:20) 0 0 0 0 0
16-08-2017 35 (17:50) 21.7 (07:40) 28.4 10.56 (16:40) 6.11 (16:20) 0 0 0 0 0
15-08-2017 34.8 (16:10) 21.9 (00:00) 28.3 9.17 (16:50) 5.83 (17:10) 0 0 0 0 0
14-08-2017 31.4 (16:40) 20.7 (01:40) 26.1 9.72 (15:30) 6.11 (16:20) 0 0 0 0 0
13-08-2017 31.3 (16:00) 19.4 (00:00) 25.3 8.33 (15:00) 5 (15:50) 0 0 0 0 0
12-08-2017 31.4 (18:20) 19.7 (00:00) 25.6 8.89 (15:20) 5.28 (16:20) 0 0 0 0 0
11-08-2017 31.1 (16:20) 19.8 (00:00) 25.4 9.17 (17:10) 4.17 (15:50) 0 0 0 0 0
10-08-2017 27.6 (17:20) 20.7 (00:00) 24.2 8.06 (02:10) 5.83 (03:50) 0 0 0 0 0
09-08-2017 35.5 (15:50) 21.9 (00:00) 28.7 10.56 (18:30) 5.83 (19:00) 0 0 0 0 0
08-08-2017 40.2 (16:10) 23.4 (00:00) 31.8 10.56 (16:10) 6.11 (20:30) 0 0 0 0 0
07-08-2017 37.4 (20:20) 23.2 (00:00) 30.3 17.5 (20:10) 10.28 (20:10) 0 0 0 0 0
06-08-2017 35.6 (15:00) 23.6 (00:00) 29.6 10.56 (17:20) 6.39 (17:40) 0 0 0 0 0
05-08-2017 38.5 (15:40) 22.4 (00:00) 30.4 10.28 (16:20) 5.83 (18:00) 0 0 0 0 0
04-08-2017 40.5 (16:30) 23 (00:00) 31.8 9.44 (16:10) 5 (16:10) 0 0 0 0 0
03-08-2017 38.2 (14:10) 23 (00:00) 30.6 11.39 (19:30) 6.39 (20:10) 0 0 0 0 0
02-08-2017 36.7 (14:30) 25.5 (00:00) 31.1 9.17 (19:10) 5.83 (19:20) 0 0 0 0 0
01-08-2017 35.7 (14:10) 23.7 (00:00) 29.7 15.56 (19:40) 7.5 (19:30) 0 0 0 0 0
31-07-2017 37.3 (17:00) 21.8 (00:00) 29.5 9.17 (15:50) 5.28 (21:10) 0 0 0 0 0
30-07-2017 40.5 (16:40) 20.2 (00:00) 30.4 9.72 (17:40) 5.56 (14:20) 0 0 0 0 0
29-07-2017 37.6 (15:20) 19.9 (00:00) 28.7 8.89 (16:30) 5 (15:50) 0 0 0 0 0
28-07-2017 39.7 (15:50) 20.4 (00:00) 30.1 10.56 (15:10) 5.83 (14:20) 0 0 0 0 0
27-07-2017 36.8 (16:20) 20.8 (00:00) 28.8 10.56 (20:30) 6.11 (20:30) 0 0 0 0 0
26-07-2017 34 (14:20) 24 (00:00) 29 11.94 (16:50) 6.39 (16:50) 0 0 0 0 0
25-07-2017 33.2 (16:40) 21.2 (00:00) 27.2 8.61 (17:30) 5 (19:20) 0 0 0 0 0
24-07-2017 36.8 (17:10) 20 (00:00) 28.4 10.83 (16:20) 5.28 (15:50) 0 0 0 0 0
23-07-2017 35.9 (16:30) 21.6 (00:00) 28.8 13.61 (18:20) 5.83 (18:00) 0 0 0 0 0
22-07-2017 35.1 (17:10) 20.9 (00:00) 28 10 (18:20) 5.83 (21:00) 0 0 0 0 0
21-07-2017 34.5 (14:40) 22.5 (00:00) 28.5 10 (17:40) 5.83 (17:40) 0 0 0 0 0
20-07-2017 36.1 (13:50) 21.1 (00:00) 28.6 11.39 (15:00) 7.22 (17:30) 0 0 0 0 0
19-07-2017 36.6 (17:00) 22 (00:00) 29.3 8.89 (18:20) 5.56 (18:30) 0 0 0 0 0

Gráficas

Temp. máximas Temp. mínimas Temp. medias Precipitaciones Rachas de viento máximas Velocidades máximas media en intervalos de 10 minutos

Datos horarios

Fecha y hora oficial Temperatura (ºC) Velocidad del viento (km/h) Dirección del viento Racha (km/h) Dirección de racha Precipitación (mm) Presión (hPa) Tendencia (hPa) Humedad (%)
2017-08-17 23:00:00 26.6 5 Sudoeste 14 Oeste 0 -- -- 65
2017-08-17 22:00:00 28.1 9 Sudoeste 23 Oeste 0 -- -- 57
2017-08-17 21:00:00 29.8 10 Noroeste 21 Noroeste 0 -- -- 51
2017-08-17 20:00:00 32.1 8 Noroeste 23 Norte 0 -- -- 44
2017-08-17 19:00:00 33.8 14 Norte 25 Norte 0 -- -- 40
2017-08-17 18:00:00 36.1 11 Sudeste 23 Sudeste 0 -- -- 35
2017-08-17 17:00:00 36 5 Este 35 Sur 0 -- -- 38
2017-08-17 16:00:00 35.2 14 Sur 33 Sudoeste 0 -- -- 40
2017-08-17 15:00:00 34.1 16 Sudoeste 31 Sudoeste 0 -- -- 46
2017-08-17 14:00:00 33.4 11 Sur 31 Sudoeste 0 -- -- 46
2017-08-17 13:00:00 31.4 9 Oeste 19 Sudoeste 0 -- -- 54
2017-08-17 12:00:00 29.9 5 Sur 13 Sur 0 -- -- 61
2017-08-17 11:00:00 27.8 4 Sudeste 8 Sudoeste 0 -- -- 69
2017-08-17 10:00:00 25.2 0 Calma 6 Sudoeste 0 -- -- 81
2017-08-17 09:00:00 23.7 3 Sudoeste 7 Sudoeste 0 -- -- 86
2017-08-17 08:00:00 22.5 4 Sudeste 5 Sudeste 0 -- -- 93
2017-08-17 07:00:00 22.2 2 Este 4 Norte 0 -- -- 91
2017-08-17 06:00:00 22.6 3 Nordeste 5 Nordeste 0 -- -- 90
2017-08-17 05:00:00 22.6 3 Norte 5 Nordeste 0 -- -- 90
2017-08-17 04:00:00 23.1 5 Nordeste 8 Nordeste 0 -- -- 89
2017-08-17 03:00:00 23.5 4 Nordeste 6 Nordeste 0 -- -- 88
2017-08-17 02:00:00 23.8 4 Sur 8 Sur 0 -- -- 88
2017-08-17 01:00:00 24.4 5 Sudoeste 9 Sur 0 -- -- 86
2017-08-17 00:00:00 25.3 4 Sudoeste 17 Oeste 0 -- -- 82
2017-08-16 23:00:00 25.8 7 Sudoeste 25 Oeste 0 -- -- 81
2017-08-16 22:00:00 26.7 13 Sudoeste 27 Sudoeste 0 -- -- 75
2017-08-16 21:00:00 28.7 14 Oeste 27 Oeste 0 -- -- 66
2017-08-16 20:00:00 31.8 9 Sur 27 Sudoeste 0 -- -- 55
2017-08-16 19:00:00 32.4 15 Sudoeste 37 Sudoeste 0 -- -- 54
2017-08-16 18:00:00 34.3 18 Sudoeste 38 Sur 0 -- -- 46
2017-08-16 17:00:00 34.3 16 Sudoeste 38 Oeste 0 -- -- 48
2017-08-16 16:00:00 33 19 Sudoeste 36 Sudoeste 0 -- -- 53
2017-08-16 15:00:00 33.5 22 Sudoeste 36 Sudoeste 0 -- -- 52
2017-08-16 14:00:00 33.5 9 Sur 25 Sudoeste 0 -- -- 49
2017-08-16 13:00:00 32 11 Sudoeste 27 Sudoeste 0 -- -- 55
2017-08-16 12:00:00 30.5 7 Sudeste 12 Este 0 -- -- 59
2017-08-16 11:00:00 28.5 5 Este 9 Nordeste 0 -- -- 63
2017-08-16 10:00:00 26.1 2 Sudeste 12 Sudoeste 0 -- -- 77
2017-08-16 09:00:00 24.1 5 Sur 8 Sur 0 -- -- 87
2017-08-16 08:00:00 22.1 4 Sur 6 Sur 0 -- -- 92
2017-08-16 07:00:00 22 0 Calma 2 Nordeste 0 -- -- 90
2017-08-16 06:00:00 22.8 0 Calma 3 Norte 0 -- -- 88
2017-08-16 05:00:00 23.5 0 Calma 4 Este 0 -- -- 89
2017-08-16 04:00:00 23.1 3 Nordeste 6 Nordeste 0 -- -- 87
2017-08-16 03:00:00 23.5 2 Nordeste 5 Este 0 -- -- 86
2017-08-16 02:00:00 23.8 4 Nordeste 7 Nordeste 0 -- -- 86
2017-08-16 01:00:00 24.4 5 Nordeste 8 Nordeste 0 -- -- 83
2017-08-16 00:00:00 25.3 4 Nordeste 8 Norte 0 -- -- 80
2017-08-15 23:00:00 26.1 4 Nordeste 15 Nordeste 0 -- -- 75
2017-08-15 22:00:00 27.1 7 Nordeste 13 Este 0 -- -- 67
2017-08-15 21:00:00 28 6 Norte 19 Norte 0 -- -- 63
2017-08-15 20:00:00 29.1 13 Nordeste 25 Nordeste 0 -- -- 62
2017-08-15 19:00:00 30.6 12 Nordeste 26 Nordeste 0 -- -- 55
2017-08-15 18:00:00 32.7 17 Nordeste 32 Nordeste 0 -- -- 49
2017-08-15 17:00:00 33.6 19 Norte 33 Nordeste 0 -- -- 46
2017-08-15 16:00:00 34.5 14 Nordeste 28 Nordeste 0 -- -- 43
2017-08-15 15:00:00 33.3 8 Norte 24 Noroeste 0 -- -- 46
2017-08-15 14:00:00 31.2 7 Norte 21 Nordeste 0 -- -- 49
2017-08-15 13:00:00 30 13 Norte 22 Norte 0 -- -- 54
2017-08-15 12:00:00 28.7 10 Nordeste 22 Norte 0 -- -- 55
2017-08-15 11:00:00 27.5 10 Nordeste 19 Nordeste 0 -- -- 58
2017-08-15 10:00:00 25.6 3 Noroeste 8 Oeste 0 -- -- 64
2017-08-15 09:00:00 23.1 4 Oeste 8 Nordeste 0 -- -- 72
2017-08-15 08:00:00 21.9 4 Nordeste 13 Nordeste 0 -- -- 76
2017-08-15 07:00:00 22.9 10 Nordeste 17 Nordeste 0 -- -- 70
2017-08-15 06:00:00 22.2 6 Norte 13 Nordeste 0 -- -- 80
2017-08-15 05:00:00 22.8 8 Norte 14 Nordeste 0 -- -- 81
2017-08-15 04:00:00 22.5 8 Nordeste 15 Nordeste 0 -- -- 84
2017-08-15 03:00:00 22.6 10 Nordeste 15 Nordeste 0 -- -- 85
2017-08-15 02:00:00 23 3 Norte 9 Nordeste 0 -- -- 84
2017-08-15 01:00:00 23.3 6 Nordeste 10 Nordeste 0 -- -- 81
2017-08-15 00:00:00 23.4 8 Norte 19 Norte 0 -- -- 79
2017-08-14 23:00:00 24.2 12 Nordeste 22 Norte 0 -- -- 73
2017-08-14 22:00:00 25 12 Nordeste 18 Nordeste 0 -- -- 68
2017-08-14 21:00:00 26.3 15 Nordeste 27 Nordeste 0 -- -- 58
2017-08-14 20:00:00 28.3 18 Nordeste 27 Norte 0 -- -- 46
2017-08-14 19:00:00 29.9 20 Nordeste 30 Nordeste 0 -- -- 43
2017-08-14 18:00:00 30.7 20 Norte 32 Nordeste 0 -- -- 36
2017-08-14 17:00:00 31.1 18 Nordeste 32 Norte 0 -- -- 38
2017-08-14 16:00:00 31 20 Norte 35 Norte 0 -- -- 37
2017-08-14 15:00:00 30.7 19 Nordeste 32 Norte 0 -- -- 42
2017-08-14 14:00:00 30.1 16 Nordeste 27 Norte 0 -- -- 49
2017-08-14 13:00:00 28.1 10 Nordeste 23 Nordeste 0 -- -- 55
2017-08-14 12:00:00 26.5 12 Norte 21 Norte 0 -- -- 60
2017-08-14 11:00:00 25.6 14 Nordeste 24 Nordeste 0 -- -- 65
2017-08-14 10:00:00 24.3 8 Nordeste 15 Nordeste 0 -- -- 69
2017-08-14 09:00:00 23 5 Nordeste 10 Norte 0 -- -- 74
2017-08-14 08:00:00 21.9 7 Nordeste 15 Nordeste 0 -- -- 78
2017-08-14 07:00:00 21.5 8 Nordeste 13 Nordeste 0 -- -- 81
2017-08-14 06:00:00 21.2 4 Norte 10 Nordeste 0 -- -- 82
2017-08-14 05:00:00 21.2 5 Nordeste 10 Nordeste 0 -- -- 82
2017-08-14 04:00:00 21.4 4 Norte 6 Norte 0 -- -- 80
2017-08-14 03:00:00 21.2 3 Nordeste 4 Nordeste 0 -- -- 81
2017-08-14 02:00:00 20.9 0 Calma 4 Sur 0 -- -- 83
2017-08-14 01:00:00 21.2 3 Sur 5 Norte 0 -- -- 80
2017-08-14 00:00:00 22.3 4 Norte 9 Nordeste 0 -- -- 76
2017-08-13 23:00:00 23.1 7 Nordeste 14 Nordeste 0 -- -- 72
2017-08-13 22:00:00 24 8 Nordeste 15 Norte 0 -- -- 67
2017-08-13 21:00:00 25.4 9 Nordeste 23 Norte 0 -- -- 61
2017-08-13 20:00:00 27.5 13 Nordeste 24 Nordeste 0 -- -- 52
2017-08-13 19:00:00 28.8 12 Nordeste 26 Nordeste 0 -- -- 47
2017-08-13 18:00:00 29.5 13 Nordeste 28 Nordeste 0 -- -- 42
2017-08-13 17:00:00 30.8 12 Nordeste 26 Nordeste 0 -- -- 40
2017-08-13 16:00:00 31.3 15 Nordeste 30 Nordeste 0 -- -- 37
2017-08-13 15:00:00 30.3 14 Norte 30 Norte 0 -- -- 38
2017-08-13 14:00:00 29.1 13 Norte 24 Norte 0 -- -- 48
2017-08-13 13:00:00 27.8 12 Nordeste 24 Norte 0 -- -- 53
2017-08-13 12:00:00 25.3 11 Nordeste 21 Nordeste 0 -- -- 62
2017-08-13 11:00:00 23.7 13 Nordeste 22 Nordeste 0 -- -- 70
2017-08-13 10:00:00 23 11 Nordeste 17 Norte 0 -- -- 74
2017-08-13 09:00:00 21.3 5 Nordeste 9 Nordeste 0 -- -- 80
2017-08-13 08:00:00 19.9 4 Nordeste 6 Norte 0 -- -- 84
2017-08-13 07:00:00 19.5 5 Nordeste 8 Nordeste 0 -- -- 85
2017-08-13 06:00:00 19.7 4 Nordeste 5 Norte 0 -- -- 85
2017-08-13 05:00:00 20.5 2 Norte 5 Nordeste 0 -- -- 83
2017-08-13 04:00:00 20.5 3 Nordeste 7 Nordeste 0 -- -- 84
2017-08-13 03:00:00 20.7 5 Nordeste 8 Nordeste 0 -- -- 83
2017-08-13 02:00:00 20.4 3 Norte 6 Nordeste 0 -- -- 78
2017-08-13 01:00:00 20.2 2 Norte 5 Nordeste 0 -- -- 76
2017-08-13 00:00:00 21.1 2 Sur 5 Noroeste 0 -- -- 74
2017-08-12 23:00:00 23.2 4 Noroeste 7 Noroeste 0 -- -- 64
2017-08-12 22:00:00 24.5 0 Calma 21 Nordeste 0 -- -- 54
2017-08-12 21:00:00 25.5 13 Nordeste 24 Nordeste 0 -- -- 52
2017-08-12 20:00:00 28.9 14 Norte 23 Nordeste 0 -- -- 33
2017-08-12 19:00:00 30.6 15 Sudeste 29 Sudeste 0 -- -- 27
2017-08-12 18:00:00 31.2 11 Este 29 Este 0 -- -- 28
2017-08-12 17:00:00 31.3 18 Nordeste 30 Nordeste 0 -- -- 32
2017-08-12 16:00:00 30.7 18 Nordeste 32 Norte 0 -- -- 34
2017-08-12 15:00:00 29.9 18 Nordeste 31 Nordeste 0 -- -- 40
2017-08-12 14:00:00 29.3 14 Norte 24 Norte 0 -- -- 43
2017-08-12 13:00:00 27.8 9 Norte 20 Norte 0 -- -- 49
2017-08-12 12:00:00 25.8 8 Norte 21 Norte 0 -- -- 58
2017-08-12 11:00:00 25 11 Nordeste 19 Nordeste 0 -- -- 61
2017-08-12 10:00:00 23.9 8 Nordeste 15 Nordeste 0 -- -- 66
2017-08-12 09:00:00 21.3 5 Nordeste 8 Nordeste 0 -- -- 77
2017-08-12 08:00:00 20.1 0 Calma 6 Norte 0 -- -- 82
2017-08-12 07:00:00 20.1 5 Este 8 Este 0 -- -- 81
2017-08-12 06:00:00 20.3 3 Nordeste 6 Nordeste 0 -- -- 81
2017-08-12 05:00:00 20.6 2 Norte 4 Norte 0 -- -- 78
2017-08-12 04:00:00 20.2 0 Calma 5 Norte 0 -- -- 79
2017-08-12 03:00:00 19.9 0 Calma 7 Nordeste 0 -- -- 79
2017-08-12 02:00:00 20.4 4 Nordeste 8 Nordeste 0 -- -- 76
2017-08-12 01:00:00 21.2 0 Calma 10 Este 0 -- -- 67
2017-08-12 00:00:00 21.7 5 Sudeste 10 Norte 0 -- -- 67
2017-08-11 23:00:00 23.4 8 Norte 14 Norte 0 -- -- 60
2017-08-11 22:00:00 24.2 6 Nordeste 16 Nordeste 0 -- -- 52
2017-08-11 21:00:00 25.8 12 Norte 18 Nordeste 0 -- -- 48
2017-08-11 20:00:00 29.3 5 Sudeste 18 Nordeste 0 -- -- 39
2017-08-11 19:00:00 29.5 10 Este 25 Este 0 -- -- 39
2017-08-11 18:00:00 30.6 12 Este 33 Nordeste 0 -- -- 37
2017-08-11 17:00:00 30.9 8 Este 21 Este 0 -- -- 34
2017-08-11 16:00:00 30.8 11 Nordeste 27 Este 0 -- -- 34
2017-08-11 15:00:00 30.8 6 Norte 23 Nordeste 0 -- -- 34
2017-08-11 14:00:00 29.8 8 Nordeste 24 Noroeste 0 -- -- 35
2017-08-11 13:00:00 28.7 4 Oeste 16 Este 0 -- -- 39
2017-08-11 12:00:00 27.3 7 Nordeste 18 Nordeste 0 -- -- 44
2017-08-11 11:00:00 25.7 9 Norte 16 Norte 0 -- -- 50
2017-08-11 10:00:00 24.1 8 Nordeste 13 Norte 0 -- -- 62
2017-08-11 09:00:00 22.3 7 Nordeste 11 Nordeste 0 -- -- 70
2017-08-11 08:00:00 20 4 Nordeste 9 Nordeste 0 -- -- 79
2017-08-11 07:00:00 20 6 Nordeste 8 Nordeste 0 -- -- 79
2017-08-11 06:00:00 21.3 6 Nordeste 13 Norte 0 -- -- 74
2017-08-11 05:00:00 22.1 4 Nordeste 9 Nordeste 0 -- -- 71
2017-08-11 04:00:00 22.3 2 Noroeste 5 Noroeste 0 -- -- 71
2017-08-11 03:00:00 22.6 3 Norte 5 Noroeste 0 -- -- 70
2017-08-11 02:00:00 22.6 3 Noroeste 7 Norte 0 -- -- 70
2017-08-11 01:00:00 22.8 3 Norte 9 Norte 0 -- -- 70
2017-08-11 00:00:00 22.9 4 Norte 9 Norte 0 -- -- 70
2017-08-10 23:00:00 22.5 3 Sur 6 Sudeste 0 -- -- 72
2017-08-10 22:00:00 23.2 4 Noroeste 13 Oeste 0 -- -- 68
2017-08-10 21:00:00 24.6 9 Oeste 16 Oeste 0 -- -- 61
2017-08-10 20:00:00 26.1 9 Norte 19 Nordeste 0 -- -- 55
2017-08-10 19:00:00 27.3 12 Norte 25 Nordeste 0 -- -- 51
2017-08-10 18:00:00 27.4 9 Norte 23 Nordeste 0 -- -- 51
2017-08-10 17:00:00 27.1 8 Nordeste 22 Nordeste 0 -- -- 52
2017-08-10 16:00:00 27.2 8 Nordeste 22 Norte 0 -- -- 52
2017-08-10 15:00:00 26.8 7 Norte 23 Norte 0 -- -- 52
2017-08-10 14:00:00 25.1 11 Norte 23 Nordeste 0 -- -- 57
2017-08-10 13:00:00 23 9 Norte 17 Nordeste 0 -- -- 66
2017-08-10 12:00:00 22.2 10 Nordeste 17 Nordeste 0 -- -- 70
2017-08-10 11:00:00 21.6 10 Norte 21 Nordeste 0 -- -- 72
2017-08-10 10:00:00 21.3 9 Nordeste 18 Noroeste 0 -- -- 73
2017-08-10 09:00:00 20.7 12 Norte 26 Noroeste 0 -- -- 73
2017-08-10 08:00:00 21 10 Norte 19 Norte 0 -- -- 71
2017-08-10 07:00:00 21 9 Nordeste 19 Norte 0 -- -- 75
2017-08-10 06:00:00 21.7 11 Nordeste 27 Nordeste 0 -- -- 77
2017-08-10 05:00:00 22.5 11 Norte 25 Nordeste 0 -- -- 80
2017-08-10 04:00:00 23.8 16 Nordeste 28 Nordeste 0 -- -- 83
2017-08-10 03:00:00 24.2 13 Norte 29 Nordeste 0 -- -- 79
2017-08-10 02:00:00 25.1 17 Norte 26 Norte 0 -- -- 77
2017-08-10 01:00:00 26.3 18 Nordeste 25 Nordeste 0 -- -- 76
2017-08-10 00:00:00 26.3 13 Nordeste 24 Nordeste 0 -- -- 76
2017-08-09 23:00:00 27 15 Nordeste 24 Nordeste 0 -- -- 70
2017-08-09 22:00:00 27.5 8 Nordeste 21 Norte 0 -- -- 71
2017-08-09 21:00:00 28.8 9 Norte 26 Sudeste 0 -- -- 66
2017-08-09 20:00:00 31 14 Sudeste 33 Sudeste 0 -- -- 57
2017-08-09 19:00:00 32.7 21 Sudeste 38 Sudeste 0 -- -- 50
2017-08-09 18:00:00 34 17 Sur 36 Sudoeste 0 -- -- 45
2017-08-09 17:00:00 34.1 13 Sudeste 27 Sur 0 -- -- 43
2017-08-09 16:00:00 35.4 9 Este 20 Este 0 -- -- 36
2017-08-09 15:00:00 34.2 5 Norte 17 Oeste 0 -- -- 37
2017-08-09 14:00:00 32.9 6 Sur 18 Este 0 -- -- 43
2017-08-09 13:00:00 31.3 5 Nordeste 20 Nordeste 0 -- -- 47
2017-08-09 12:00:00 29.6 9 Nordeste 19 Norte 0 -- -- 53
2017-08-09 11:00:00 28.3 9 Nordeste 17 Nordeste 0 -- -- 56
2017-08-09 10:00:00 27.1 8 Norte 13 Nordeste 0 -- -- 61
2017-08-09 09:00:00 24.4 4 Norte 9 Nordeste 0 -- -- 74
2017-08-09 08:00:00 22.8 4 Este 8 Este 0 -- -- 79
2017-08-09 07:00:00 21.9 5 Nordeste 7 Nordeste 0 -- -- 84
2017-08-09 06:00:00 22.1 0 Calma 5 Sudeste 0 -- -- 87
2017-08-09 05:00:00 22.6 4 Sudeste 5 Sudeste 0 -- -- 84
2017-08-09 04:00:00 23.3 0 Calma 9 Este 0 -- -- 81
2017-08-09 03:00:00 23.5 5 Nordeste 9 Norte 0 -- -- 82
2017-08-09 02:00:00 23.9 5 Norte 9 Norte 0 -- -- 82
2017-08-09 01:00:00 24.9 4 Norte 19 Nordeste 0 -- -- 79
2017-08-09 00:00:00 25.6 15 Nordeste 23 Nordeste 0 -- -- 76
2017-08-08 23:00:00 26.6 16 Nordeste 32 Nordeste 0 -- -- 77
2017-08-08 22:00:00 28.1 19 Nordeste 33 Nordeste 0 -- -- 67
2017-08-08 21:00:00 29.8 18 Nordeste 34 Norte 0 -- -- 54
2017-08-08 20:00:00 33.6 18 Norte 30 Norte 0 -- -- 36
2017-08-08 19:00:00 36.6 12 Nordeste 35 Noroeste 0 -- -- 33
2017-08-08 18:00:00 39.1 12 Sudoeste 31 Sudoeste 0 -- -- 33
2017-08-08 17:00:00 39.7 13 Sur 38 Este 0 -- -- 31
2017-08-08 16:00:00 39.9 14 Nordeste 29 Norte 0 -- -- 20
2017-08-08 15:00:00 38.5 9 Nordeste 18 Este 0 -- -- 20
2017-08-08 14:00:00 36.7 11 Este 22 Nordeste 0 -- -- 24
2017-08-08 13:00:00 34.6 12 Nordeste 23 Nordeste 0 -- -- 29
2017-08-08 12:00:00 34 13 Nordeste 22 Norte 0 -- -- 33
2017-08-08 11:00:00 31.2 15 Nordeste 23 Nordeste 0 -- -- 51
2017-08-08 10:00:00 27.8 10 Nordeste 16 Nordeste 0 -- -- 76
2017-08-08 09:00:00 25.4 5 Norte 9 Nordeste 0 -- -- 86
2017-08-08 08:00:00 23.5 4 Nordeste 8 Este 0 -- -- 93
2017-08-08 07:00:00 23.5 2 Norte 6 Noroeste 0 -- -- 91
2017-08-08 06:00:00 24.2 5 Este 12 Sudeste 0 -- -- 90
2017-08-08 05:00:00 24.5 4 Sudoeste 12 Sudoeste 0 -- -- 90
2017-08-08 04:00:00 24.8 3 Sur 6 Sur 0 -- -- 86
2017-08-08 03:00:00 25.9 3 Sudoeste 14 Oeste 0 -- -- 81
2017-08-08 02:00:00 27.7 10 Sudoeste 28 Sur 0 -- -- 72
2017-08-08 01:00:00 28.4 13 Sur 27 Sur 0 -- -- 66
2017-08-08 00:00:00 27.4 14 Oeste 24 Oeste 0 -- -- 75
2017-08-07 23:00:00 29.9 11 Este 48 Sur 0 -- -- 61
2017-08-07 22:00:00 30.6 24 Sur 55 Sudoeste 0 -- -- 59
2017-08-07 21:00:00 32 15 Sudoeste 63 Sur 0 -- -- 51
2017-08-07 20:00:00 31.9 27 Sur 50 Sur 0 -- -- 26
2017-08-07 19:00:00 30.8 16 Sudoeste 28 Sudoeste 0 -- -- 60
2017-08-07 18:00:00 34.3 12 Sudoeste 33 Sudoeste 0 -- -- 48
2017-08-07 17:00:00 35.6 17 Sudoeste 33 Sudoeste 0 -- -- 49
2017-08-07 16:00:00 35.4 5 Este 36 Sudoeste 0 -- -- 46
2017-08-07 15:00:00 33.7 6 Nordeste 19 Nordeste 0 -- -- 49
2017-08-07 14:00:00 32.2 6 Nordeste 23 Oeste 0 -- -- 55
2017-08-07 13:00:00 31 9 Sudoeste 20 Oeste 0 -- -- 58
2017-08-07 12:00:00 30.6 4 Este 10 Este 0 -- -- 61
2017-08-07 11:00:00 28.3 7 Nordeste 12 Nordeste 0 -- -- 68
2017-08-07 10:00:00 27.2 6 Este 13 Sudoeste 0 -- -- 75
2017-08-07 09:00:00 25.7 4 Sudoeste 8 Oeste 0 -- -- 79
2017-08-07 08:00:00 23.6 3 Sudoeste 6 Sur 0 -- -- 88
2017-08-07 07:00:00 23.4 2 Norte 7 Este 0 -- -- 86
2017-08-07 06:00:00 23.4 0 Calma 2 Oeste 0 -- -- 88
2017-08-07 05:00:00 23.9 0 Calma 3 Este 0 -- -- 86
2017-08-07 04:00:00 24.4 0 Calma 2 Noroeste 0 -- -- 85
2017-08-07 03:00:00 25.3 0 Calma 3 Noroeste 0 -- -- 80
2017-08-07 02:00:00 25.7 0 Calma 9 Sur 0 -- -- 78
2017-08-07 01:00:00 26.3 7 Sur 14 Sur 0 -- -- 77
2017-08-07 00:00:00 26.8 7 Sur 13 Sur 0 -- -- 72
2017-08-06 23:00:00 27.5 3 Este 10 Nordeste 0 -- -- 69
2017-08-06 22:00:00 28.4 6 Nordeste 12 Norte 0 -- -- 64
2017-08-06 21:00:00 29.4 6 Nordeste 23 Nordeste 0 -- -- 60
2017-08-06 20:00:00 30.7 10 Nordeste 23 Norte 0 -- -- 56
2017-08-06 19:00:00 32.7 15 Nordeste 28 Nordeste 0 -- -- 49
2017-08-06 18:00:00 32.7 21 Nordeste 38 Nordeste 0 -- -- 47
2017-08-06 17:00:00 34.2 21 Nordeste 36 Nordeste 0 -- -- 44
2017-08-06 16:00:00 34.3 15 Nordeste 31 Nordeste 0 -- -- 47
2017-08-06 15:00:00 35.6 10 Nordeste 30 Norte 0 -- -- 45
2017-08-06 14:00:00 34.6 15 Norte 25 Norte 0 -- -- 46
2017-08-06 13:00:00 33.5 6 Norte 22 Norte 0 -- -- 50
2017-08-06 12:00:00 31.4 5 Noroeste 13 Nordeste 0 -- -- 60
2017-08-06 11:00:00 29.4 5 Norte 11 Nordeste 0 -- -- 66
2017-08-06 10:00:00 27.8 5 Norte 9 Noroeste 0 -- -- 74
2017-08-06 09:00:00 25.4 0 Calma 4 Norte 0 -- -- 79
2017-08-06 08:00:00 24.1 0 Calma 3 Noroeste 0 -- -- 86
2017-08-06 07:00:00 23.8 0 Calma 6 Nordeste 0 -- -- 86
2017-08-06 06:00:00 24.1 4 Este 6 Nordeste 0 -- -- 84
2017-08-06 05:00:00 24.3 2 Nordeste 5 Sudeste 0 -- -- 83
2017-08-06 04:00:00 24.8 4 Sudeste 8 Sur 0 -- -- 83
2017-08-06 03:00:00 25.1 4 Sur 10 Sudoeste 0 -- -- 77
2017-08-06 02:00:00 25.4 4 Sur 6 Sur 0 -- -- 74
2017-08-06 01:00:00 26.3 0 Calma 6 Oeste 0 -- -- 60
2017-08-06 00:00:00 27.8 3 Sudoeste 10 Oeste 0 -- -- 46
2017-08-05 23:00:00 30.9 3 Este 17 Sudeste 0 -- -- 34
2017-08-05 22:00:00 31.9 7 Sur 26 Sur 0 -- -- 29
2017-08-05 21:00:00 33.3 13 Sur 26 Sudeste 0 -- -- 29
2017-08-05 20:00:00 35.3 14 Sur 33 Sudeste 0 -- -- 29
2017-08-05 19:00:00 37.1 18 Sur 37 Sudeste 0 -- -- 26
2017-08-05 18:00:00 37.9 21 Sudeste 34 Sudeste 0 -- -- 26
2017-08-05 17:00:00 38.4 16 Sur 37 Sur 0 -- -- 29
2017-08-05 16:00:00 38.3 15 Sur 32 Sur 0 -- -- 36
2017-08-05 15:00:00 37.9 11 Sur 27 Sur 0 -- -- 35
2017-08-05 14:00:00 36.9 6 Norte 18 Sur 0 -- -- 34
2017-08-05 13:00:00 34.9 6 Nordeste 14 Este 0 -- -- 38
2017-08-05 12:00:00 32.8 6 Nordeste 10 Nordeste 0 -- -- 47
2017-08-05 11:00:00 30.4 4 Nordeste 11 Nordeste 0 -- -- 53
2017-08-05 10:00:00 28.3 6 Norte 10 Norte 0 -- -- 64
2017-08-05 09:00:00 25.8 2 Nordeste 5 Nordeste 0 -- -- 77
2017-08-05 08:00:00 23.4 3 Nordeste 6 Este 0 -- -- 84
2017-08-05 07:00:00 22.5 3 Nordeste 5 Nordeste 0 -- -- 86
2017-08-05 06:00:00 22.9 3 Nordeste 4 Sudeste 0 -- -- 86
2017-08-05 05:00:00 23.4 0 Calma 3 Nordeste 0 -- -- 86
2017-08-05 04:00:00 24 0 Calma 5 Sudoeste 0 -- -- 83
2017-08-05 03:00:00 24.2 4 Sudoeste 9 Sudoeste 0 -- -- 79
2017-08-05 02:00:00 24.8 5 Sur 11 Sudoeste 0 -- -- 71
2017-08-05 01:00:00 26.2 6 Sudoeste 10 Sur 0 -- -- 67
2017-08-05 00:00:00 27.2 8 Sur 12 Sur 0 -- -- 62
2017-08-04 23:00:00 28.4 9 Sur 11 Sur 0 -- -- 58
2017-08-04 22:00:00 30.5 6 Oeste 19 Sudoeste 0 -- -- 51
2017-08-04 21:00:00 33.3 10 Oeste 28 Sudoeste 0 -- -- 40
2017-08-04 20:00:00 37.7 10 Sudeste 22 Sudeste 0 -- -- 30
2017-08-04 19:00:00 38.7 14 Sur 31 Sudeste 0 -- -- 27
2017-08-04 18:00:00 39.9 14 Sur 29 Sudeste 0 -- -- 29
2017-08-04 17:00:00 40.5 14 Sudeste 34 Sur 0 -- -- 31
2017-08-04 16:00:00 40.1 13 Sudeste 27 Este 0 -- -- 32
2017-08-04 15:00:00 39.1 9 Norte 16 Norte 0 -- -- 33
2017-08-04 14:00:00 38.3 7 Sur 29 Sur 0 -- -- 35
2017-08-04 13:00:00 36.5 11 Sudoeste 21 Sudoeste 0 -- -- 37
2017-08-04 12:00:00 34.6 9 Sudoeste 18 Oeste 0 -- -- 42
2017-08-04 11:00:00 32.8 7 Sudoeste 13 Oeste 0 -- -- 46
2017-08-04 10:00:00 30.9 5 Nordeste 10 Nordeste 0 -- -- 51
2017-08-04 09:00:00 27.8 7 Nordeste 12 Nordeste 0 -- -- 64
2017-08-04 08:00:00 24.8 6 Nordeste 12 Nordeste 0 -- -- 74
2017-08-04 07:00:00 23 6 Nordeste 11 Nordeste 0 -- -- 77
2017-08-04 06:00:00 23.8 7 Nordeste 10 Este 0 -- -- 73
2017-08-04 05:00:00 23.4 0 Calma 6 Sudoeste 0 -- -- 85
2017-08-04 04:00:00 23.9 5 Sudoeste 9 Sur 0 -- -- 79
2017-08-04 03:00:00 24.5 4 Sudoeste 7 Sur 0 -- -- 75
2017-08-04 02:00:00 25.5 5 Sudoeste 10 Sur 0 -- -- 71
2017-08-04 01:00:00 26.6 8 Sur 11 Sur 0 -- -- 67
2017-08-04 00:00:00 27.2 7 Sur 8 Sur 0 -- -- 67
2017-08-03 23:00:00 28.5 2 Sur 10 Oeste 0 -- -- 63
2017-08-03 22:00:00 30 6 Sudoeste 31 Sudoeste 0 -- -- 56
2017-08-03 21:00:00 31.4 18 Sudoeste 36 Sudoeste 0 -- -- 56
2017-08-03 20:00:00 34.5 18 Sudoeste 41 Sudoeste 0 -- -- 46
2017-08-03 19:00:00 36.3 19 Sudoeste 34 Sudoeste 0 -- -- 43
2017-08-03 18:00:00 37.1 19 Sudoeste 34 Sudoeste 0 -- -- 41
2017-08-03 17:00:00 37.3 20 Sudoeste 33 Sudoeste 0 -- -- 41
2017-08-03 16:00:00 37.8 18 Sudoeste 30 Sur 0 -- -- 40
2017-08-03 15:00:00 37.4 18 Sur 30 Sudoeste 0 -- -- 41
2017-08-03 14:00:00 37.9 6 Este 13 Nordeste 0 -- -- 28
2017-08-03 13:00:00 36.2 6 Este 17 Norte 0 -- -- 35
2017-08-03 12:00:00 34.2 5 Sudeste 15 Este 0 -- -- 42
2017-08-03 11:00:00 31.8 4 Este 10 Este 0 -- -- 48
2017-08-03 10:00:00 29.1 2 Norte 5 Noroeste 0 -- -- 60
2017-08-03 09:00:00 26.2 3 Sudoeste 6 Oeste 0 -- -- 72
2017-08-03 08:00:00 23.9 2 Nordeste 4 Sudeste 0 -- -- 84
2017-08-03 07:00:00 23.3 0 Calma 7 Sur 0 -- -- 83
2017-08-03 06:00:00 24.2 4 Norte 8 Nordeste 0 -- -- 79
2017-08-03 05:00:00 24.5 6 Nordeste 10 Nordeste 0 -- -- 78
2017-08-03 04:00:00 24.7 7 Nordeste 10 Nordeste 0 -- -- 79
2017-08-03 03:00:00 25.2 7 Nordeste 9 Nordeste 0 -- -- 76
2017-08-03 02:00:00 25.5 0 Calma 7 Sur 0 -- -- 77
2017-08-03 01:00:00 26.3 7 Sur 9 Sur 0 -- -- 75
2017-08-03 00:00:00 27.1 4 Sudoeste 7 Sudoeste 0 -- -- 70
2017-08-02 23:00:00 28.7 3 Noroeste 14 Oeste 0 -- -- 64
2017-08-02 22:00:00 30 8 Sudoeste 18 Sudoeste 0 -- -- 57
2017-08-02 21:00:00 31.7 6 Nordeste 20 Norte 0 -- -- 48
2017-08-02 20:00:00 33.2 12 Nordeste 33 Nordeste 0 -- -- 40
2017-08-02 19:00:00 33.6 17 Nordeste 32 Nordeste 0 -- -- 45
2017-08-02 18:00:00 34.6 13 Nordeste 26 Nordeste 0 -- -- 39
2017-08-02 17:00:00 35.8 8 Sur 17 Sur 0 -- -- 35
2017-08-02 16:00:00 35.4 9 Sudeste 24 Sudeste 0 -- -- 38
2017-08-02 15:00:00 36.5 6 Sudeste 19 Sudeste 0 -- -- 36
2017-08-02 14:00:00 35.8 13 Nordeste 27 Nordeste 0 -- -- 40
2017-08-02 13:00:00 33.5 7 Noroeste 17 Nordeste 0 -- -- 49
2017-08-02 12:00:00 31.2 9 Nordeste 14 Nordeste 0 -- -- 57
2017-08-02 11:00:00 29.1 7 Norte 13 Nordeste 0 -- -- 63
2017-08-02 10:00:00 27.3 7 Nordeste 13 Nordeste 0 -- -- 75
2017-08-02 09:00:00 26.6 10 Nordeste 15 Nordeste 0 -- -- 78
2017-08-02 08:00:00 25.6 5 Nordeste 9 Nordeste 0 -- -- 83
2017-08-02 07:00:00 25.7 5 Sudeste 16 Nordeste 0 -- -- 82
2017-08-02 06:00:00 25.8 9 Nordeste 18 Nordeste 0 -- -- 81
2017-08-02 05:00:00 26.1 9 Nordeste 14 Nordeste 0 -- -- 83
2017-08-02 04:00:00 26.5 9 Nordeste 14 Nordeste 0 -- -- 81
2017-08-02 03:00:00 26.6 7 Nordeste 21 Oeste 0 -- -- 81
2017-08-02 02:00:00 26.9 13 Este 22 Nordeste 0 -- -- 77
2017-08-02 01:00:00 27.2 3 Norte 22 Nordeste 0 -- -- 78
2017-08-02 00:00:00 27.5 8 Nordeste 18 Nordeste 0 -- -- 70
2017-08-01 23:00:00 28 6 Norte 19 Nordeste 0 -- -- 66
2017-08-01 22:00:00 28.4 6 Nordeste 24 Nordeste 0 -- -- 63
2017-08-01 21:00:00 29.1 4 Norte 45 Sudeste 0 -- -- 62
2017-08-01 20:00:00 30.3 17 Sudeste 56 Sudeste 0 -- -- 51
2017-08-01 19:00:00 30.3 9 Nordeste 29 Nordeste 0 -- -- 57
2017-08-01 18:00:00 31.8 13 Norte 26 Norte 0 -- -- 56
2017-08-01 17:00:00 33.4 14 Nordeste 25 Nordeste 0 -- -- 49
2017-08-01 16:00:00 34.6 15 Nordeste 26 Norte 0 -- -- 43
2017-08-01 15:00:00 35.2 13 Norte 23 Norte 0 -- -- 40
2017-08-01 14:00:00 35.1 14 Nordeste 23 Nordeste 0 -- -- 39
2017-08-01 13:00:00 33.9 9 Norte 21 Este 0 -- -- 44
2017-08-01 12:00:00 32.1 6 Norte 13 Nordeste 0 -- -- 48
2017-08-01 11:00:00 29.5 9 Nordeste 16 Nordeste 0 -- -- 62
2017-08-01 10:00:00 27.4 12 Nordeste 18 Nordeste 0 -- -- 74
2017-08-01 09:00:00 25.4 7 Nordeste 10 Este 0 -- -- 83
2017-08-01 08:00:00 23.8 3 Nordeste 6 Nordeste 0 -- -- 90
2017-08-01 07:00:00 24.1 2 Oeste 6 Este 0 -- -- 88
2017-08-01 06:00:00 24.2 6 Norte 12 Nordeste 0 -- -- 88
2017-08-01 05:00:00 24.8 5 Nordeste 17 Sudoeste 0 -- -- 85
2017-08-01 04:00:00 25.1 11 Sudoeste 17 Sudoeste 0 -- -- 86
2017-08-01 03:00:00 25.3 2 Sudeste 5 Este 0 -- -- 82
2017-08-01 02:00:00 26 2 Norte 9 Sudoeste 0 -- -- 79
2017-08-01 01:00:00 26.6 4 Oeste 10 Oeste 0 -- -- 75
2017-08-01 00:00:00 27.2 4 Nordeste 14 Sudeste 0 -- -- 71
2017-07-31 23:00:00 27.4 9 Sur 18 Sudoeste 0 -- -- 62
2017-07-31 22:00:00 27.5 11 Sur 32 Sudoeste 0 -- -- 70
2017-07-31 21:00:00 30.2 12 Sudoeste 29 Oeste 0 -- -- 63
2017-07-31 20:00:00 34.7 17 Sudeste 31 Sudoeste 0 -- -- 43
2017-07-31 19:00:00 36.1 14 Sudoeste 31 Oeste 0 -- -- 39
2017-07-31 18:00:00 36.9 16 Sudoeste 31 Oeste 0 -- -- 34
2017-07-31 17:00:00 37.3 15 Sudoeste 30 Sudoeste 0 -- -- 35
2017-07-31 16:00:00 36.9 17 Sudoeste 33 Sur 0 -- -- 36
2017-07-31 15:00:00 36.3 18 Sudoeste 30 Sudoeste 0 -- -- 33
2017-07-31 14:00:00 35.5 6 Sudoeste 18 Sudoeste 0 -- -- 36
2017-07-31 13:00:00 33.2 5 Oeste 15 Nordeste 0 -- -- 37
2017-07-31 12:00:00 31.6 6 Este 14 Nordeste 0 -- -- 40
2017-07-31 11:00:00 29 3 Este 9 Nordeste 0 -- -- 50
2017-07-31 10:00:00 26.3 5 Oeste 10 Sudoeste 0 -- -- 70
2017-07-31 09:00:00 24.3 2 Norte 5 Nordeste 0 -- -- 80
2017-07-31 08:00:00 22 3 Nordeste 6 Norte 0 -- -- 88
2017-07-31 07:00:00 22 6 Nordeste 9 Nordeste 0 -- -- 87
2017-07-31 06:00:00 22.3 5 Este 9 Norte 0 -- -- 90
2017-07-31 05:00:00 22.2 8 Nordeste 13 Nordeste 0 -- -- 90
2017-07-31 04:00:00 23.2 9 Nordeste 12 Nordeste 0 -- -- 87
2017-07-31 03:00:00 23.3 5 Nordeste 6 Nordeste 0 -- -- 80
2017-07-31 02:00:00 23.4 2 Sudeste 8 Sur 0 -- -- 73
2017-07-31 01:00:00 24.8 4 Este 12 Nordeste 0 -- -- 66
2017-07-31 00:00:00 25.1 4 Sudeste 6 Sudeste 0 -- -- 60
2017-07-30 23:00:00 27.2 0 Calma 10 Sudoeste 0 -- -- 52
2017-07-30 22:00:00 29.4 7 Sudoeste 28 Oeste 0 -- -- 42
2017-07-30 21:00:00 33.7 8 Sudoeste 24 Sudoeste 0 -- -- 33
2017-07-30 20:00:00 38.1 15 Sudeste 31 Sudeste 0 -- -- 15
2017-07-30 19:00:00 38.7 11 Sur 31 Sur 0 -- -- 18
2017-07-30 18:00:00 39.4 17 Sur 35 Sur 0 -- -- 18
2017-07-30 17:00:00 40.3 18 Sur 26 Sur 0 -- -- 24
2017-07-30 16:00:00 40.1 18 Sur 31 Sudoeste 0 -- -- 29
2017-07-30 15:00:00 40 13 Sur 31 Sur 0 -- -- 28
2017-07-30 14:00:00 38.3 15 Oeste 30 Oeste 0 -- -- 31
2017-07-30 13:00:00 36.3 3 Noroeste 8 Nordeste 0 -- -- 26
2017-07-30 12:00:00 33.9 2 Nordeste 9 Oeste 0 -- -- 33
2017-07-30 11:00:00 30.7 4 Oeste 17 Sudoeste 0 -- -- 42
2017-07-30 10:00:00 27.9 9 Sudoeste 19 Oeste 0 -- -- 53
2017-07-30 09:00:00 23.1 5 Sudoeste 9 Sudoeste 0 -- -- 60
2017-07-30 08:00:00 20.9 4 Sudoeste 9 Sur 0 -- -- 68
2017-07-30 07:00:00 20.6 0 Calma 6 Sur 0 -- -- 68
2017-07-30 06:00:00 20.8 6 Sur 12 Sudoeste 0 -- -- 66
2017-07-30 05:00:00 22.3 3 Sudoeste 10 Este 0 -- -- 64
2017-07-30 04:00:00 23.1 7 Este 10 Este 0 -- -- 57
2017-07-30 03:00:00 22.9 0 Calma 6 Noroeste 0 -- -- 58
2017-07-30 02:00:00 23.6 3 Sudeste 8 Sur 0 -- -- 52
2017-07-30 01:00:00 24.5 0 Calma 6 Sudoeste 0 -- -- 47
2017-07-30 00:00:00 25.6 2 Sudoeste 8 Sudoeste 0 -- -- 41
2017-07-29 23:00:00 27.5 7 Sur 15 Oeste 0 -- -- 36
2017-07-29 22:00:00 29.6 5 Este 14 Sudoeste 0 -- -- 37
2017-07-29 21:00:00 32.1 5 Sudoeste 24 Sudoeste 0 -- -- 33
2017-07-29 20:00:00 34.6 15 Sudoeste 29 Sudoeste 0 -- -- 33
2017-07-29 19:00:00 36.6 14 Sur 28 Sur 0 -- -- 36
2017-07-29 18:00:00 37.5 14 Sur 30 Sur 0 -- -- 35
2017-07-29 17:00:00 37.5 17 Sur 32 Sudeste 0 -- -- 37
2017-07-29 16:00:00 37.3 17 Sur 30 Sudoeste 0 -- -- 36
2017-07-29 15:00:00 37.2 17 Sur 31 Sur 0 -- -- 34
2017-07-29 14:00:00 35.6 4 Nordeste 17 Nordeste 0 -- -- 33
2017-07-29 13:00:00 33.4 4 Nordeste 11 Nordeste 0 -- -- 39
2017-07-29 12:00:00 31.1 5 Norte 11 Nordeste 0 -- -- 43
2017-07-29 11:00:00 29 5 Nordeste 12 Norte 0 -- -- 48
2017-07-29 10:00:00 26.5 6 Nordeste 12 Norte 0 -- -- 58
2017-07-29 09:00:00 24.4 5 Norte 8 Norte 0 -- -- 62
2017-07-29 08:00:00 20.1 4 Sur 5 Este 0 -- -- 80
2017-07-29 07:00:00 20.4 4 Nordeste 5 Nordeste 0 -- -- 76
2017-07-29 06:00:00 21.2 0 Calma 4 Nordeste 0 -- -- 74
2017-07-29 05:00:00 22.6 4 Nordeste 7 Nordeste 0 -- -- 64
2017-07-29 04:00:00 23.1 4 Nordeste 7 Este 0 -- -- 65
2017-07-29 03:00:00 23.7 7 Este 8 Este 0 -- -- 65
2017-07-29 02:00:00 24.4 4 Este 6 Este 0 -- -- 63
2017-07-29 01:00:00 25.2 3 Este 5 Sur 0 -- -- 59
2017-07-29 00:00:00 26.5 0 Calma 6 Nordeste 0 -- -- 54
2017-07-28 23:00:00 28.4 6 Nordeste 12 Norte 0 -- -- 46
2017-07-28 22:00:00 30.2 8 Nordeste 17 Nordeste 0 -- -- 43
2017-07-28 21:00:00 34 10 Sur 33 Sudeste 0 -- -- 24
2017-07-28 20:00:00 35.7 19 Sudeste 33 Sur 0 -- -- 22
2017-07-28 19:00:00 37.2 14 Sur 30 Sur 0 -- -- 25
2017-07-28 18:00:00 38.8 13 Sur 30 Sur 0 -- -- 23
2017-07-28 17:00:00 39.2 15 Sur 30 Sudeste 0 -- -- 22
2017-07-28 16:00:00 39.6 12 Sur 38 Sudoeste 0 -- -- 22
2017-07-28 15:00:00 37.7 19 Sudoeste 35 Sur 0 -- -- 25
2017-07-28 14:00:00 37.1 6 Este 13 Este 0 -- -- 28
2017-07-28 13:00:00 35.2 5 Este 12 Norte 0 -- -- 34
2017-07-28 12:00:00 32.8 8 Nordeste 14 Nordeste 0 -- -- 38
2017-07-28 11:00:00 30.2 11 Nordeste 17 Nordeste 0 -- -- 43
2017-07-28 10:00:00 27.5 9 Nordeste 13 Nordeste 0 -- -- 57
2017-07-28 09:00:00 24 2 Nordeste 4 Nordeste 0 -- -- 73
2017-07-28 08:00:00 20.9 4 Sudoeste 6 Sudoeste 0 -- -- 83
2017-07-28 07:00:00 20.7 3 Sudoeste 10 Sudoeste 0 -- -- 82
2017-07-28 06:00:00 21.3 6 Sudoeste 10 Sudoeste 0 -- -- 80
2017-07-28 05:00:00 22 2 Norte 8 Sur 0 -- -- 77
2017-07-28 04:00:00 22.1 4 Sudeste 6 Sudeste 0 -- -- 77
2017-07-28 03:00:00 22.6 2 Este 5 Sur 0 -- -- 78
2017-07-28 02:00:00 23.1 3 Sudoeste 8 Sudoeste 0 -- -- 68
2017-07-28 01:00:00 24.1 4 Sudoeste 6 Sudoeste 0 -- -- 62
2017-07-28 00:00:00 25.6 4 Sudoeste 12 Sudoeste 0 -- -- 54
2017-07-27 23:00:00 27.8 7 Oeste 23 Sur 0 -- -- 46
2017-07-27 22:00:00 30.8 16 Sur 30 Sur 0 -- -- 34
2017-07-27 21:00:00 32 20 Sur 38 Sur 0 -- -- 31
2017-07-27 20:00:00 33.9 20 Sur 33 Sur 0 -- -- 27
2017-07-27 19:00:00 35.1 21 Sur 32 Sudeste 0 -- -- 26
2017-07-27 18:00:00 36.6 18 Sur 31 Sudeste 0 -- -- 25
2017-07-27 17:00:00 36.4 19 Sudeste 32 Sudeste 0 -- -- 28
2017-07-27 16:00:00 36.3 16 Sur 33 Sudoeste 0 -- -- 28
2017-07-27 15:00:00 35.3 18 Sur 31 Sur 0 -- -- 30
2017-07-27 14:00:00 34.3 18 Sur 33 Sur 0 -- -- 30
2017-07-27 13:00:00 33 15 Sur 32 Sudoeste 0 -- -- 34
2017-07-27 12:00:00 30.4 15 Sudoeste 26 Sudoeste 0 -- -- 41
2017-07-27 11:00:00 27.6 11 Oeste 18 Oeste 0 -- -- 60
2017-07-27 10:00:00 25.3 4 Oeste 10 Oeste 0 -- -- 74
2017-07-27 09:00:00 23 4 Sudoeste 6 Sur 0 -- -- 83
2017-07-27 08:00:00 21.4 0 Calma 5 Sudoeste 0 -- -- 91
2017-07-27 07:00:00 21 2 Sur 5 Sur 0 -- -- 92
2017-07-27 06:00:00 21.3 2 Sudoeste 7 Sudoeste 0 -- -- 91
2017-07-27 05:00:00 21.5 5 Sudoeste 8 Sur 0 -- -- 90
2017-07-27 04:00:00 22 6 Sur 8 Sur 0 -- -- 88
2017-07-27 03:00:00 22.6 0 Calma 4 Sudeste 0 -- -- 84
2017-07-27 02:00:00 23.4 3 Sudoeste 13 Sudoeste 0 -- -- 83
2017-07-27 01:00:00 24.2 5 Sudoeste 18 Oeste 0 -- -- 80
2017-07-27 00:00:00 24.9 8 Sudoeste 21 Sudoeste 0 -- -- 79
2017-07-26 23:00:00 25.8 11 Sudoeste 21 Oeste 0 -- -- 71
2017-07-26 22:00:00 28.8 10 Sur 19 Sur 0 -- -- 53
2017-07-26 21:00:00 30.2 11 Sur 27 Sur 0 -- -- 50
2017-07-26 20:00:00 31.8 17 Sur 33 Sur 0 -- -- 48
2017-07-26 19:00:00 32.5 16 Sudoeste 32 Sudoeste 0 -- -- 47
2017-07-26 18:00:00 33.2 18 Sur 34 Sudoeste 0 -- -- 44
2017-07-26 17:00:00 33.1 22 Sur 43 Sur 0 -- -- 43
2017-07-26 16:00:00 33.7 21 Sudoeste 33 Sudoeste 0 -- -- 44
2017-07-26 15:00:00 33.7 17 Sudoeste 27 Sur 0 -- -- 43
2017-07-26 14:00:00 33.4 5 Noroeste 18 Sudoeste 0 -- -- 38
2017-07-26 13:00:00 31.5 6 Sudoeste 22 Sur 0 -- -- 47
2017-07-26 12:00:00 29.9 7 Sudoeste 19 Sudoeste 0 -- -- 52
2017-07-26 11:00:00 29 6 Sudeste 15 Sur 0 -- -- 58
2017-07-26 10:00:00 27.7 3 Sur 7 Sur 0 -- -- 60
2017-07-26 09:00:00 26 2 Sur 5 Sur 0 -- -- 71
2017-07-26 08:00:00 24.8 0 Calma 7 Norte 0 -- -- 75
2017-07-26 07:00:00 24 5 Norte 8 Norte 0 -- -- 78
2017-07-26 06:00:00 24.1 3 Norte 10 Nordeste 0 -- -- 78
2017-07-26 05:00:00 24 8 Nordeste 14 Nordeste 0 -- -- 78
2017-07-26 04:00:00 24.2 6 Nordeste 13 Norte 0 -- -- 78
2017-07-26 03:00:00 24.4 6 Norte 15 Norte 0 -- -- 76
2017-07-26 02:00:00 24.8 11 Norte 17 Nordeste 0 -- -- 73
2017-07-26 01:00:00 25.5 8 Norte 12 Noroeste 0 -- -- 71
2017-07-26 00:00:00 25.7 4 Oeste 13 Noroeste 0 -- -- 70
2017-07-25 23:00:00 25.5 3 Norte 12 Norte 0 -- -- 72
2017-07-25 22:00:00 26.3 6 Noroeste 20 Oeste 0 -- -- 68
2017-07-25 21:00:00 28.1 8 Este 25 Sudeste 0 -- -- 61
2017-07-25 20:00:00 30.2 14 Sur 31 Sur 0 -- -- 54
2017-07-25 19:00:00 31.7 14 Sur 28 Este 0 -- -- 50
2017-07-25 18:00:00 32.2 14 Sur 31 Sur 0 -- -- 48
2017-07-25 17:00:00 32.6 10 Sudeste 23 Sudeste 0 -- -- 45
2017-07-25 16:00:00 32 10 Sudeste 21 Este 0 -- -- 47
2017-07-25 15:00:00 32 9 Sudeste 23 Este 0 -- -- 47
2017-07-25 14:00:00 30.8 14 Sudeste 25 Este 0 -- -- 50
2017-07-25 13:00:00 29.8 6 Norte 19 Nordeste 0 -- -- 54
2017-07-25 12:00:00 29.2 8 Nordeste 18 Norte 0 -- -- 58
2017-07-25 11:00:00 26.9 9 Nordeste 15 Norte 0 -- -- 66
2017-07-25 10:00:00 25.4 6 Nordeste 13 Nordeste 0 -- -- 74
2017-07-25 09:00:00 23.8 3 Norte 6 Nordeste 0 -- -- 81
2017-07-25 08:00:00 21.8 3 Norte 5 Norte 0 -- -- 85
2017-07-25 07:00:00 21.5 3 Norte 10 Nordeste 0 -- -- 84
2017-07-25 06:00:00 21.6 5 Nordeste 8 Nordeste 0 -- -- 84
2017-07-25 05:00:00 21.4 4 Nordeste 6 Nordeste 0 -- -- 82
2017-07-25 04:00:00 21.9 2 Este 5 Noroeste 0 -- -- 78
2017-07-25 03:00:00 22.4 0 Calma 2 Norte 0 -- -- 77
2017-07-25 02:00:00 23.2 0 Calma 4 Oeste 0 -- -- 72
2017-07-25 01:00:00 24.4 0 Calma 4 Nordeste 0 -- -- 66
2017-07-25 00:00:00 25.8 2 Norte 6 Noroeste 0 -- -- 60
2017-07-24 23:00:00 26.9 3 Noroeste 16 Norte 0 -- -- 59
2017-07-24 22:00:00 28.7 9 Noroeste 19 Norte 0 -- -- 46
2017-07-24 21:00:00 32.4 6 Sur 21 Sudoeste 0 -- -- 27
2017-07-24 20:00:00 34.9 8 Sudoeste 27 Sur 0 -- -- 27
2017-07-24 19:00:00 34.9 16 Sur 30 Sur 0 -- -- 31
2017-07-24 18:00:00 35.3 19 Sur 29 Sur 0 -- -- 37
2017-07-24 17:00:00 36.6 17 Sur 39 Sur 0 -- -- 35
2017-07-24 16:00:00 35.4 15 Sudoeste 38 Sudoeste 0 -- -- 36
2017-07-24 15:00:00 36 4 Norte 16 Nordeste 0 -- -- 22
2017-07-24 14:00:00 34.5 4 Este 14 Norte 0 -- -- 28
2017-07-24 13:00:00 32.6 5 Norte 27 Norte 0 -- -- 35
2017-07-24 12:00:00 30.2 8 Norte 17 Norte 0 -- -- 47
2017-07-24 11:00:00 28.1 9 Nordeste 17 Nordeste 0 -- -- 57
2017-07-24 10:00:00 25.7 6 Nordeste 13 Nordeste 0 -- -- 69
2017-07-24 09:00:00 23.2 5 Nordeste 8 Nordeste 0 -- -- 79
2017-07-24 08:00:00 20.9 2 Norte 6 Este 0 -- -- 82
2017-07-24 07:00:00 20.1 2 Nordeste 4 Norte 0 -- -- 84
2017-07-24 06:00:00 20.7 4 Este 7 Nordeste 0 -- -- 82
2017-07-24 05:00:00 21.3 6 Este 8 Este 0 -- -- 81
2017-07-24 04:00:00 21.2 0 Calma 3 Sur 0 -- -- 82
2017-07-24 03:00:00 22.1 0 Calma 6 Sudeste 0 -- -- 76
2017-07-24 02:00:00 22.7 6 Este 8 Este 0 -- -- 70
2017-07-24 01:00:00 23.3 4 Nordeste 6 Nordeste 0 -- -- 67
2017-07-24 00:00:00 24.3 3 Norte 7 Este 0 -- -- 66
2017-07-23 23:00:00 25.6 0 Calma 15 Sudoeste 0 -- -- 63
2017-07-23 22:00:00 27 8 Sudoeste 26 Sudoeste 0 -- -- 59
2017-07-23 21:00:00 28.7 15 Sudoeste 41 Sudoeste 0 -- -- 46
2017-07-23 20:00:00 34.2 5 Sudeste 30 Sudeste 0 -- -- 35
2017-07-23 19:00:00 34.9 13 Sudeste 49 Sudoeste 0 -- -- 38
2017-07-23 18:00:00 34.9 21 Sudoeste 38 Oeste 0 -- -- 36
2017-07-23 17:00:00 35.6 15 Sudoeste 28 Oeste 0 -- -- 35
2017-07-23 16:00:00 35.4 6 Sudoeste 28 Oeste 0 -- -- 34
2017-07-23 15:00:00 34.1 5 Norte 15 Norte 0 -- -- 34
2017-07-23 14:00:00 32.5 7 Oeste 15 Nordeste 0 -- -- 38
2017-07-23 13:00:00 30.9 4 Norte 14 Nordeste 0 -- -- 44
2017-07-23 12:00:00 29.3 8 Nordeste 17 Nordeste 0 -- -- 49
2017-07-23 11:00:00 27.3 6 Norte 10 Este 0 -- -- 53
2017-07-23 10:00:00 24.9 3 Norte 7 Norte 0 -- -- 70
2017-07-23 09:00:00 23.3 2 Nordeste 9 Sur 0 -- -- 77
2017-07-23 08:00:00 22.1 0 Calma 6 Sudoeste 0 -- -- 81
2017-07-23 07:00:00 21.6 3 Sur 8 Sur 0 -- -- 80
2017-07-23 06:00:00 22 4 Sudoeste 9 Sur 0 -- -- 76
2017-07-23 05:00:00 22.5 0 Calma 6 Sur 0 -- -- 77
2017-07-23 04:00:00 23.1 3 Este 9 Oeste 0 -- -- 75
2017-07-23 03:00:00 23.6 3 Nordeste 21 Este 0 -- -- 72
2017-07-23 02:00:00 22.8 12 Nordeste 16 Nordeste 0 -- -- 78
2017-07-23 01:00:00 23.4 3 Sur 17 Sudoeste 0 -- -- 82
2017-07-23 00:00:00 24.3 8 Oeste 14 Oeste 0 -- -- 76
2017-07-22 23:00:00 25.2 7 Sudoeste 22 Sudoeste 0 -- -- 67
2017-07-22 22:00:00 26.4 13 Oeste 28 Sudoeste 0 -- -- 58
2017-07-22 21:00:00 28 21 Sudoeste 29 Oeste 0 -- -- 49
2017-07-22 20:00:00 32 8 Norte 23 Oeste 0 -- -- 42
2017-07-22 19:00:00 33.4 13 Noroeste 36 Oeste 0 -- -- 42
2017-07-22 18:00:00 34.1 12 Sudoeste 31 Sudoeste 0 -- -- 41
2017-07-22 17:00:00 34.7 15 Oeste 29 Sudoeste 0 -- -- 40
2017-07-22 16:00:00 34.2 9 Norte 23 Norte 0 -- -- 38
2017-07-22 15:00:00 33.6 11 Nordeste 24 Noroeste 0 -- -- 39
2017-07-22 14:00:00 32 9 Norte 22 Norte 0 -- -- 44
2017-07-22 13:00:00 30 9 Norte 18 Norte 0 -- -- 53
2017-07-22 12:00:00 29 13 Nordeste 20 Nordeste 0 -- -- 57
2017-07-22 11:00:00 27.4 10 Nordeste 18 Nordeste 0 -- -- 62
2017-07-22 10:00:00 26 7 Norte 11 Norte 0 -- -- 70
2017-07-22 09:00:00 23.4 4 Sudoeste 6 Sur 0 -- -- 76
2017-07-22 08:00:00 22.4 2 Norte 9 Nordeste 0 -- -- 78
2017-07-22 07:00:00 20.9 4 Nordeste 6 Nordeste 0 -- -- 87
2017-07-22 06:00:00 21.3 2 Nordeste 9 Nordeste 0 -- -- 85
2017-07-22 05:00:00 22 8 Nordeste 10 Este 0 -- -- 85
2017-07-22 04:00:00 21.8 4 Nordeste 7 Nordeste 0 -- -- 82
2017-07-22 03:00:00 22.9 5 Nordeste 8 Nordeste 0 -- -- 80
2017-07-22 02:00:00 23.3 3 Sudoeste 18 Sudoeste 0 -- -- 80
2017-07-22 01:00:00 23.9 12 Sudoeste 19 Sudoeste 0 -- -- 78
2017-07-22 00:00:00 24.4 7 Sur 9 Sudoeste 0 -- -- 66
2017-07-21 23:00:00 25.6 6 Sudoeste 13 Sudoeste 0 -- -- 61
2017-07-21 22:00:00 27 7 Sudoeste 24 Sudoeste 0 -- -- 56
2017-07-21 21:00:00 28.5 16 Sudoeste 30 Sudoeste 0 -- -- 50
2017-07-21 20:00:00 31 14 Sudoeste 28 Sur 0 -- -- 47
2017-07-21 19:00:00 32.3 17 Sur 30 Sudeste 0 -- -- 49
2017-07-21 18:00:00 33.1 18 Sudeste 36 Sudeste 0 -- -- 47
2017-07-21 17:00:00 32.9 12 Sudeste 26 Sudeste 0 -- -- 44
2017-07-21 16:00:00 33.7 11 Sur 29 Sudoeste 0 -- -- 46
2017-07-21 15:00:00 33 7 Nordeste 19 Este 0 -- -- 41
2017-07-21 14:00:00 33.5 7 Sur 15 Sudeste 0 -- -- 42
2017-07-21 13:00:00 32 6 Este 14 Sur 0 -- -- 46
2017-07-21 12:00:00 30.4 6 Sur 10 Oeste 0 -- -- 50
2017-07-21 11:00:00 28.7 4 Sudeste 12 Este 0 -- -- 59
2017-07-21 10:00:00 26.3 3 Nordeste 10 Nordeste 0 -- -- 74
2017-07-21 09:00:00 24.9 0 Calma 5 Norte 0 -- -- 81
2017-07-21 08:00:00 23.7 2 Este 7 Este 0 -- -- 86
2017-07-21 07:00:00 22.5 3 Noroeste 9 Nordeste 0 -- -- 87
2017-07-21 06:00:00 22.6 7 Este 10 Nordeste 0 -- -- 89
2017-07-21 05:00:00 23.1 0 Calma 7 Sur 0 -- -- 87
2017-07-21 04:00:00 23.7 3 Oeste 8 Oeste 0 -- -- 85
2017-07-21 03:00:00 23.8 0 Calma 10 Sur 0 -- -- 83
2017-07-21 02:00:00 24.1 5 Sur 10 Sur 0 -- -- 81
2017-07-21 01:00:00 25.1 3 Sur 8 Norte 0 -- -- 75
2017-07-21 00:00:00 25.4 4 Sur 10 Sur 0 -- -- 72
2017-07-20 23:00:00 26.4 3 Sudoeste 6 Oeste 0 -- -- 68
2017-07-20 22:00:00 27.9 3 Noroeste 17 Noroeste 0 -- -- 60
2017-07-20 21:00:00 30 7 Norte 27 Sudeste 0 -- -- 52
2017-07-20 20:00:00 31.6 18 Sudeste 33 Sudeste 0 -- -- 46
2017-07-20 19:00:00 33.1 17 Sudeste 32 Sudeste 0 -- -- 42
2017-07-20 18:00:00 33.5 21 Sudeste 41 Sudeste 0 -- -- 42
2017-07-20 17:00:00 34.1 23 Sudeste 40 Sudeste 0 -- -- 38
2017-07-20 16:00:00 34.7 19 Sudeste 40 Sudeste 0 -- -- 37
2017-07-20 15:00:00 35 20 Sudeste 41 Sudeste 0 -- -- 37
2017-07-20 14:00:00 36.1 10 Este 31 Este 0 -- -- 32
2017-07-20 13:00:00 34.7 9 Norte 19 Norte 0 -- -- 25
2017-07-20 12:00:00 33.5 8 Nordeste 14 Nordeste 0 -- -- 27
2017-07-20 11:00:00 31.9 6 Norte 26 Noroeste 0 -- -- 29
2017-07-20 10:00:00 29.8 7 Norte 14 Norte 0 -- -- 38
2017-07-20 09:00:00 24.6 4 Sudoeste 10 Oeste 0 -- -- 72
2017-07-20 08:00:00 22.4 6 Sur 11 Sur 0 -- -- 86
2017-07-20 07:00:00 21.6 4 Oeste 13 Este 0 -- -- 86
2017-07-20 06:00:00 21.4 5 Nordeste 7 Este 0 -- -- 90
2017-07-20 05:00:00 21.4 3 Sudoeste 4 Sur 0 -- -- 88
2017-07-20 04:00:00 21.8 3 Sudoeste 9 Sudoeste 0 -- -- 88
2017-07-20 03:00:00 22.5 6 Sudoeste 9 Sudoeste 0 -- -- 88
2017-07-20 02:00:00 23.3 6 Sudoeste 16 Sudoeste 0 -- -- 85
2017-07-20 01:00:00 23.8 10 Sudoeste 15 Sudoeste 0 -- -- 83
2017-07-20 00:00:00 24.9 8 Sudoeste 16 Sudoeste 0 -- -- 78
2017-07-19 23:00:00 26 9 Sudoeste 21 Sudoeste 0 -- -- 65
2017-07-19 22:00:00 27 13 Oeste 26 Sudoeste 0 -- -- 58
2017-07-19 21:00:00 30.7 5 Sudoeste 25 Este 0 -- -- 47
2017-07-19 20:00:00 32.7 15 Sudoeste 28 Sudoeste 0 -- -- 44
2017-07-19 19:00:00 34.9 10 Sur 32 Sudoeste 0 -- -- 38
2017-07-19 18:00:00 35.1 15 Sur 32 Sur 0 -- -- 40
2017-07-19 17:00:00 36.6 13 Sur 27 Sur 0 -- -- 36
2017-07-19 16:00:00 35.4 10 Nordeste 22 Nordeste 0 -- -- 38
2017-07-19 15:00:00 34.3 11 Nordeste 21 Este 0 -- -- 42
2017-07-19 14:00:00 32.9 7 Nordeste 17 Nordeste 0 -- -- 45
2017-07-19 13:00:00 31.5 6 Noroeste 14 Norte 0 -- -- 43
2017-07-19 12:00:00 31 4 Este 13 Sur 0 -- -- 41
2017-07-19 11:00:00 28.5 4 Norte 12 Norte 0 -- -- 46
2017-07-19 10:00:00 27.4 2 Nordeste 7 Oeste 0 -- -- 54
2017-07-19 09:00:00 25.3 4 Sudoeste 7 Oeste 0 -- -- 66
2017-07-19 08:00:00 22.5 4 Este 9 Sudeste 0 -- -- 79
2017-07-19 07:00:00 22.4 8 Nordeste 11 Nordeste 0 -- -- 79
2017-07-19 06:00:00 22.5 7 Nordeste 17 Norte 0 -- -- 76
2017-07-19 05:00:00 23.2 13 Norte 26 Norte 0 -- -- 79
2017-07-19 04:00:00 24 19 Nordeste 28 Norte 0 -- -- 79
2017-07-19 03:00:00 23.8 5 Nordeste 13 Nordeste 0 -- -- 73
2017-07-19 02:00:00 24 8 Nordeste 15 Oeste 0 -- -- 66
2017-07-19 01:00:00 23.7 5 Nordeste 13 Nordeste 0 -- -- 58
2017-07-19 00:00:00 24.4 2 Norte 12 Nordeste 0 -- -- 55